sensor_id;sensor_type;location;lat;lon;timestamp;pressure;altitude;pressure_sealevel;temperature;humidity
44140;BME280;29803;51.048;4.686;2024-03-07T00:00:49;102453.22;;;5.30;100.00
44140;BME280;29803;51.048;4.686;2024-03-07T00:03:24;102451.44;;;5.31;100.00
44140;BME280;29803;51.048;4.686;2024-03-07T00:05:54;102441.56;;;5.33;100.00
44140;BME280;29803;51.048;4.686;2024-03-07T00:08:25;102449.28;;;5.37;100.00
44140;BME280;29803;51.048;4.686;2024-03-07T00:10:55;102450.97;;;5.38;100.00
44140;BME280;29803;51.048;4.686;2024-03-07T00:13:26;102448.50;;;5.35;100.00
44140;BME280;29803;51.048;4.686;2024-03-07T00:15:58;102443.44;;;5.31;100.00
44140;BME280;29803;51.048;4.686;2024-03-07T00:18:29;102441.91;;;5.27;100.00
44140;BME280;29803;51.048;4.686;2024-03-07T00:20:59;102444.69;;;5.25;100.00
44140;BME280;29803;51.048;4.686;2024-03-07T00:23:30;102443.66;;;5.28;100.00
44140;BME280;29803;51.048;4.686;2024-03-07T00:26:02;102450.47;;;5.32;100.00
44140;BME280;29803;51.048;4.686;2024-03-07T00:28:33;102446.09;;;5.31;100.00
44140;BME280;29803;51.048;4.686;2024-03-07T00:31:09;102443.66;;;5.28;100.00
44140;BME280;29803;51.048;4.686;2024-03-07T00:33:39;102443.81;;;5.25;100.00
44140;BME280;29803;51.048;4.686;2024-03-07T00:36:10;102438.69;;;5.22;100.00
44140;BME280;29803;51.048;4.686;2024-03-07T00:38:41;102436.97;;;5.20;100.00
44140;BME280;29803;51.048;4.686;2024-03-07T00:41:12;102438.03;;;5.18;100.00
44140;BME280;29803;51.048;4.686;2024-03-07T00:43:43;102440.09;;;5.13;100.00
44140;BME280;29803;51.048;4.686;2024-03-07T00:46:13;102431.28;;;5.12;100.00
44140;BME280;29803;51.048;4.686;2024-03-07T00:48:43;102430.59;;;5.09;100.00
44140;BME280;29803;51.048;4.686;2024-03-07T00:51:16;102419.38;;;5.04;100.00
44140;BME280;29803;51.048;4.686;2024-03-07T00:53:46;102422.13;;;5.02;100.00
44140;BME280;29803;51.048;4.686;2024-03-07T00:56:17;102426.56;;;5.02;100.00
44140;BME280;29803;51.048;4.686;2024-03-07T00:58:48;102420.41;;;5.01;100.00
44140;BME280;29803;51.048;4.686;2024-03-07T01:01:18;102425.81;;;5.00;100.00
44140;BME280;29803;51.048;4.686;2024-03-07T01:03:49;102419.75;;;4.98;100.00
44140;BME280;29803;51.048;4.686;2024-03-07T01:06:20;102424.38;;;4.94;100.00
44140;BME280;29803;51.048;4.686;2024-03-07T01:08:50;102415.66;;;4.92;100.00
44140;BME280;29803;51.048;4.686;2024-03-07T01:11:22;102417.53;;;4.90;100.00
44140;BME280;29803;51.048;4.686;2024-03-07T01:13:52;102419.44;;;4.88;100.00
44140;BME280;29803;51.048;4.686;2024-03-07T01:16:23;102412.47;;;4.85;100.00
44140;BME280;29803;51.048;4.686;2024-03-07T01:18:53;102418.75;;;4.84;100.00
44140;BME280;29803;51.048;4.686;2024-03-07T01:21:24;102415.25;;;4.84;100.00
44140;BME280;29803;51.048;4.686;2024-03-07T01:23:56;102409.06;;;4.83;100.00
44140;BME280;29803;51.048;4.686;2024-03-07T01:26:28;102403.81;;;4.82;100.00
44140;BME280;29803;51.048;4.686;2024-03-07T01:28:59;102404.88;;;4.79;100.00
44140;BME280;29803;51.048;4.686;2024-03-07T01:31:29;102403.16;;;4.78;100.00
44140;BME280;29803;51.048;4.686;2024-03-07T01:34:00;102397.06;;;4.76;100.00
44140;BME280;29803;51.048;4.686;2024-03-07T01:36:30;102397.25;;;4.73;100.00
44140;BME280;29803;51.048;4.686;2024-03-07T01:39:01;102391.94;;;4.73;100.00
44140;BME280;29803;51.048;4.686;2024-03-07T01:41:33;102391.00;;;4.74;100.00
44140;BME280;29803;51.048;4.686;2024-03-07T01:44:04;102394.59;;;4.73;100.00
44140;BME280;29803;51.048;4.686;2024-03-07T01:46:35;102393.94;;;4.70;100.00
44140;BME280;29803;51.048;4.686;2024-03-07T01:49:05;102390.69;;;4.64;100.00
44140;BME280;29803;51.048;4.686;2024-03-07T01:51:37;102385.63;;;4.60;100.00
44140;BME280;29803;51.048;4.686;2024-03-07T01:54:09;102378.78;;;4.56;100.00
44140;BME280;29803;51.048;4.686;2024-03-07T01:56:40;102378.97;;;4.53;100.00
44140;BME280;29803;51.048;4.686;2024-03-07T01:59:12;102389.69;;;4.51;100.00
44140;BME280;29803;51.048;4.686;2024-03-07T02:01:43;102390.72;;;4.49;100.00
44140;BME280;29803;51.048;4.686;2024-03-07T02:04:17;102386.38;;;4.48;100.00
44140;BME280;29803;51.048;4.686;2024-03-07T02:06:47;102388.91;;;4.49;100.00
44140;BME280;29803;51.048;4.686;2024-03-07T02:09:17;102379.25;;;4.48;100.00
44140;BME280;29803;51.048;4.686;2024-03-07T02:11:48;102379.25;;;4.48;100.00
44140;BME280;29803;51.048;4.686;2024-03-07T02:14:19;102380.19;;;4.47;100.00
44140;BME280;29803;51.048;4.686;2024-03-07T02:16:50;102378.47;;;4.46;100.00
44140;BME280;29803;51.048;4.686;2024-03-07T02:19:20;102377.69;;;4.44;100.00
44140;BME280;29803;51.048;4.686;2024-03-07T02:21:51;102377.97;;;4.39;100.00
44140;BME280;29803;51.048;4.686;2024-03-07T02:24:22;102368.28;;;4.38;100.00
44140;BME280;29803;51.048;4.686;2024-03-07T02:26:54;102378.06;;;4.38;100.00
44140;BME280;29803;51.048;4.686;2024-03-07T02:29:44;102374.63;;;4.36;100.00
44140;BME280;29803;51.048;4.686;2024-03-07T02:32:14;102371.22;;;4.34;100.00
44140;BME280;29803;51.048;4.686;2024-03-07T02:34:46;102373.78;;;4.35;100.00
44140;BME280;29803;51.048;4.686;2024-03-07T02:37:17;102367.00;;;4.30;100.00
44140;BME280;29803;51.048;4.686;2024-03-07T02:39:47;102366.31;;;4.26;100.00
44140;BME280;29803;51.048;4.686;2024-03-07T02:42:18;102368.50;;;4.20;100.00
44140;BME280;29803;51.048;4.686;2024-03-07T02:44:48;102366.28;;;4.12;100.00
44140;BME280;29803;51.048;4.686;2024-03-07T02:47:19;102364.06;;;4.04;100.00
44140;BME280;29803;51.048;4.686;2024-03-07T02:49:49;102359.09;;;3.98;100.00
44140;BME280;29803;51.048;4.686;2024-03-07T02:52:20;102360.09;;;3.96;100.00
44140;BME280;29803;51.048;4.686;2024-03-07T02:54:50;102360.09;;;3.96;100.00
44140;BME280;29803;51.048;4.686;2024-03-07T02:57:21;102347.69;;;3.96;100.00
44140;BME280;29803;51.048;4.686;2024-03-07T02:59:52;102351.28;;;3.95;100.00
44140;BME280;29803;51.048;4.686;2024-03-07T03:02:22;102354.13;;;3.92;100.00
44140;BME280;29803;51.048;4.686;2024-03-07T03:04:54;102354.38;;;3.87;100.00
44140;BME280;29803;51.048;4.686;2024-03-07T03:07:24;102350.19;;;3.83;100.00
44140;BME280;29803;51.048;4.686;2024-03-07T03:09:56;102345.91;;;3.81;100.00
44140;BME280;29803;51.048;4.686;2024-03-07T03:12:27;102339.72;;;3.80;100.00
44140;BME280;29803;51.048;4.686;2024-03-07T03:14:58;102337.06;;;3.80;100.00
44140;BME280;29803;51.048;4.686;2024-03-07T03:17:29;102331.16;;;3.75;100.00
44140;BME280;29803;51.048;4.686;2024-03-07T03:19:59;102335.53;;;3.76;100.00
44140;BME280;29803;51.048;4.686;2024-03-07T03:22:30;102329.56;;;3.73;100.00
44140;BME280;29803;51.048;4.686;2024-03-07T03:25:02;102328.97;;;3.68;100.00
44140;BME280;29803;51.048;4.686;2024-03-07T03:27:33;102335.47;;;3.62;100.00
44140;BME280;29803;51.048;4.686;2024-03-07T03:30:04;102329.56;;;3.57;100.00
44140;BME280;29803;51.048;4.686;2024-03-07T03:32:35;102335.97;;;3.53;100.00
44140;BME280;29803;51.048;4.686;2024-03-07T03:35:19;102336.31;;;3.47;100.00
44140;BME280;29803;51.048;4.686;2024-03-07T03:37:50;102338.28;;;3.43;100.00
44140;BME280;29803;51.048;4.686;2024-03-07T03:40:23;102325.25;;;3.38;100.00
44140;BME280;29803;51.048;4.686;2024-03-07T03:42:54;102328.16;;;3.34;100.00
44140;BME280;29803;51.048;4.686;2024-03-07T03:45:25;102331.84;;;3.31;100.00
44140;BME280;29803;51.048;4.686;2024-03-07T03:47:55;102324.75;;;3.32;100.00
44140;BME280;29803;51.048;4.686;2024-03-07T03:50:26;102321.91;;;3.35;100.00
44140;BME280;29803;51.048;4.686;2024-03-07T03:52:56;102319.94;;;3.38;100.00
44140;BME280;29803;51.048;4.686;2024-03-07T03:55:27;102326.00;;;3.41;100.00
44140;BME280;29803;51.048;4.686;2024-03-07T03:57:58;102319.78;;;3.42;100.00
44140;BME280;29803;51.048;4.686;2024-03-07T04:00:28;102322.59;;;3.38;100.00
44140;BME280;29803;51.048;4.686;2024-03-07T04:02:59;102318.16;;;3.39;100.00
44140;BME280;29803;51.048;4.686;2024-03-07T04:05:29;102322.25;;;3.45;100.00
44140;BME280;29803;51.048;4.686;2024-03-07T04:07:59;102318.50;;;3.49;100.00
44140;BME280;29803;51.048;4.686;2024-03-07T04:10:30;102314.75;;;3.53;100.00
44140;BME280;29803;51.048;4.686;2024-03-07T04:13:01;102317.06;;;3.59;100.00
44140;BME280;29803;51.048;4.686;2024-03-07T04:15:32;102311.50;;;3.63;100.00
44140;BME280;29803;51.048;4.686;2024-03-07T04:18:03;102320.03;;;3.69;100.00
44140;BME280;29803;51.048;4.686;2024-03-07T04:20:33;102310.19;;;3.71;100.00
44140;BME280;29803;51.048;4.686;2024-03-07T04:23:04;102307.38;;;3.74;100.00
44140;BME280;29803;51.048;4.686;2024-03-07T04:25:35;102313.13;;;3.82;100.00
44140;BME280;29803;51.048;4.686;2024-03-07T04:28:06;102308.47;;;3.85;100.00
44140;BME280;29803;51.048;4.686;2024-03-07T04:30:36;102314.63;;;3.86;100.00
44140;BME280;29803;51.048;4.686;2024-03-07T04:33:07;102314.56;;;3.87;100.00
44140;BME280;29803;51.048;4.686;2024-03-07T04:35:37;102310.00;;;3.89;100.00
44140;BME280;29803;51.048;4.686;2024-03-07T04:38:08;102305.66;;;3.88;100.00
44140;BME280;29803;51.048;4.686;2024-03-07T04:40:42;102299.38;;;3.89;100.00
44140;BME280;29803;51.048;4.686;2024-03-07T04:43:12;102302.16;;;3.88;100.00
44140;BME280;29803;51.048;4.686;2024-03-07T04:45:43;102310.09;;;3.88;100.00
44140;BME280;29803;51.048;4.686;2024-03-07T04:48:13;102307.63;;;3.85;100.00
44140;BME280;29803;51.048;4.686;2024-03-07T04:50:44;102301.44;;;3.84;100.00
44140;BME280;29803;51.048;4.686;2024-03-07T04:53:14;102298.91;;;3.83;100.00
44140;BME280;29803;51.048;4.686;2024-03-07T04:55:45;102296.03;;;3.86;100.00
44140;BME280;29803;51.048;4.686;2024-03-07T04:58:15;102303.00;;;3.88;100.00
44140;BME280;29803;51.048;4.686;2024-03-07T05:00:45;102302.03;;;3.89;100.00
44140;BME280;29803;51.048;4.686;2024-03-07T05:03:16;102304.69;;;3.89;100.00
44140;BME280;29803;51.048;4.686;2024-03-07T05:05:46;102303.59;;;3.94;100.00
44140;BME280;29803;51.048;4.686;2024-03-07T05:08:17;102305.78;;;4.01;100.00
44140;BME280;29803;51.048;4.686;2024-03-07T05:10:47;102295.31;;;4.14;100.00
44140;BME280;29803;51.048;4.686;2024-03-07T05:13:18;102298.19;;;4.25;100.00
44140;BME280;29803;51.048;4.686;2024-03-07T05:15:48;102307.19;;;4.38;100.00
44140;BME280;29803;51.048;4.686;2024-03-07T05:18:21;102310.72;;;4.53;100.00
44140;BME280;29803;51.048;4.686;2024-03-07T05:20:52;102310.94;;;4.64;100.00
44140;BME280;29803;51.048;4.686;2024-03-07T05:23:24;102310.28;;;4.75;100.00
44140;BME280;29803;51.048;4.686;2024-03-07T05:25:55;102310.69;;;4.83;100.00
44140;BME280;29803;51.048;4.686;2024-03-07T05:28:25;102303.06;;;4.91;100.00
44140;BME280;29803;51.048;4.686;2024-03-07T05:30:56;102308.09;;;4.96;100.00
44140;BME280;29803;51.048;4.686;2024-03-07T05:33:26;102311.63;;;4.97;100.00
44140;BME280;29803;51.048;4.686;2024-03-07T05:35:58;102303.28;;;5.03;100.00
44140;BME280;29803;51.048;4.686;2024-03-07T05:38:44;102304.31;;;5.00;100.00
44140;BME280;29803;51.048;4.686;2024-03-07T05:41:14;102311.72;;;5.09;100.00
44140;BME280;29803;51.048;4.686;2024-03-07T05:43:45;102304.78;;;5.07;100.00
44140;BME280;29803;51.048;4.686;2024-03-07T05:46:15;102304.88;;;5.05;100.00
44140;BME280;29803;51.048;4.686;2024-03-07T05:48:45;102306.53;;;5.08;100.00
44140;BME280;29803;51.048;4.686;2024-03-07T05:51:23;102304.72;;;5.08;100.00
44140;BME280;29803;51.048;4.686;2024-03-07T05:53:53;102304.03;;;5.05;100.00
44140;BME280;29803;51.048;4.686;2024-03-07T05:56:24;102300.53;;;5.04;100.00
44140;BME280;29803;51.048;4.686;2024-03-07T05:58:54;102295.09;;;5.06;100.00
44140;BME280;29803;51.048;4.686;2024-03-07T06:01:25;102299.19;;;5.11;100.00
44140;BME280;29803;51.048;4.686;2024-03-07T06:03:57;102299.97;;;5.13;100.00
44140;BME280;29803;51.048;4.686;2024-03-07T06:06:28;102296.44;;;5.13;100.00
44140;BME280;29803;51.048;4.686;2024-03-07T06:09:03;102293.78;;;5.13;100.00
44140;BME280;29803;51.048;4.686;2024-03-07T06:11:40;102291.41;;;5.08;100.00
44140;BME280;29803;51.048;4.686;2024-03-07T06:14:12;102293.78;;;5.13;100.00
44140;BME280;29803;51.048;4.686;2024-03-07T06:16:44;102296.34;;;5.14;100.00
44140;BME280;29803;51.048;4.686;2024-03-07T06:19:14;102290.84;;;5.17;100.00
44140;BME280;29803;51.048;4.686;2024-03-07T06:21:45;102295.28;;;5.17;100.00
44140;BME280;29803;51.048;4.686;2024-03-07T06:24:16;102303.19;;;5.18;100.00
44140;BME280;29803;51.048;4.686;2024-03-07T06:26:48;102298.72;;;5.19;100.00
44140;BME280;29803;51.048;4.686;2024-03-07T06:29:29;102306.69;;;5.19;100.00
44140;BME280;29803;51.048;4.686;2024-03-07T06:32:00;102308.41;;;5.20;100.00
44140;BME280;29803;51.048;4.686;2024-03-07T06:34:30;102308.50;;;5.18;100.00
44140;BME280;29803;51.048;4.686;2024-03-07T06:37:01;102309.47;;;5.17;100.00
44140;BME280;29803;51.048;4.686;2024-03-07T06:39:33;102303.94;;;5.20;100.00
44140;BME280;29803;51.048;4.686;2024-03-07T06:42:03;102312.88;;;5.19;100.00
44140;BME280;29803;51.048;4.686;2024-03-07T06:44:34;102315.25;;;5.24;100.00
44140;BME280;29803;51.048;4.686;2024-03-07T06:47:04;102309.81;;;5.26;100.00
44140;BME280;29803;51.048;4.686;2024-03-07T06:49:35;102317.81;;;5.26;100.00
44140;BME280;29803;51.048;4.686;2024-03-07T06:52:08;102322.09;;;5.28;100.00
44140;BME280;29803;51.048;4.686;2024-03-07T06:54:39;102322.84;;;5.30;100.00
44140;BME280;29803;51.048;4.686;2024-03-07T06:57:10;102320.84;;;5.34;100.00
44140;BME280;29803;51.048;4.686;2024-03-07T06:59:40;102315.31;;;5.37;100.00
44140;BME280;29803;51.048;4.686;2024-03-07T07:02:11;102314.38;;;5.38;100.00
44140;BME280;29803;51.048;4.686;2024-03-07T07:04:41;102315.03;;;5.41;100.00
44140;BME280;29803;51.048;4.686;2024-03-07T07:07:13;102322.66;;;5.48;100.00
44140;BME280;29803;51.048;4.686;2024-03-07T07:09:44;102316.25;;;5.50;100.00
44140;BME280;29803;51.048;4.686;2024-03-07T07:12:14;102321.59;;;5.50;100.00
44140;BME280;29803;51.048;4.686;2024-03-07T07:14:45;102321.78;;;5.47;100.00
44140;BME280;29803;51.048;4.686;2024-03-07T07:17:15;102318.25;;;5.46;100.00
44140;BME280;29803;51.048;4.686;2024-03-07T07:19:46;102323.28;;;5.51;100.00
44140;BME280;29803;51.048;4.686;2024-03-07T07:22:16;102314.16;;;5.55;100.00
44140;BME280;29803;51.048;4.686;2024-03-07T07:24:48;102309.69;;;5.56;100.00
44140;BME280;29803;51.048;4.686;2024-03-07T07:27:19;102312.34;;;5.56;100.00
44140;BME280;29803;51.048;4.686;2024-03-07T07:29:50;102314.44;;;5.65;100.00
44140;BME280;29803;51.048;4.686;2024-03-07T07:32:20;102302.06;;;5.64;100.00
44140;BME280;29803;51.048;4.686;2024-03-07T07:34:51;102305.69;;;5.63;100.00
44140;BME280;29803;51.048;4.686;2024-03-07T07:37:21;102312.22;;;5.71;100.00
44140;BME280;29803;51.048;4.686;2024-03-07T07:39:53;102306.03;;;5.71;100.00
44140;BME280;29803;51.048;4.686;2024-03-07T07:42:23;102320.97;;;5.74;100.00
44140;BME280;29803;51.048;4.686;2024-03-07T07:44:54;102310.50;;;5.70;100.00
44140;BME280;29803;51.048;4.686;2024-03-07T07:47:24;102308.69;;;5.71;100.00
44140;BME280;29803;51.048;4.686;2024-03-07T07:49:55;102310.97;;;5.77;100.00
44140;BME280;29803;51.048;4.686;2024-03-07T07:52:25;102309.81;;;5.81;100.00
44140;BME280;29803;51.048;4.686;2024-03-07T07:54:55;102302.06;;;5.91;100.00
44140;BME280;29803;51.048;4.686;2024-03-07T07:57:26;102294.78;;;5.94;100.00
44140;BME280;29803;51.048;4.686;2024-03-07T07:59:57;102291.28;;;6.07;100.00
44140;BME280;29803;51.048;4.686;2024-03-07T08:02:27;102289.94;;;6.14;100.00
44140;BME280;29803;51.048;4.686;2024-03-07T08:04:58;102293.25;;;6.17;100.00
44140;BME280;29803;51.048;4.686;2024-03-07T08:07:29;102292.00;;;6.23;100.00
44140;BME280;29803;51.048;4.686;2024-03-07T08:09:59;102293.28;;;6.30;100.00
44140;BME280;29803;51.048;4.686;2024-03-07T08:12:30;102288.69;;;6.32;100.00
44140;BME280;29803;51.048;4.686;2024-03-07T08:15:01;102292.97;;;6.35;100.00
44140;BME280;29803;51.048;4.686;2024-03-07T08:17:31;102292.38;;;6.44;100.00
44140;BME280;29803;51.048;4.686;2024-03-07T08:20:02;102289.28;;;6.50;100.00
44140;BME280;29803;51.048;4.686;2024-03-07T08:22:33;102283.28;;;6.46;100.00
44140;BME280;29803;51.048;4.686;2024-03-07T08:25:05;102280.75;;;6.58;100.00
44140;BME280;29803;51.048;4.686;2024-03-07T08:27:41;102278.63;;;6.63;100.00
44140;BME280;29803;51.048;4.686;2024-03-07T08:30:12;102270.19;;;6.69;100.00
44140;BME280;29803;51.048;4.686;2024-03-07T08:35:17;102281.47;;;7.11;100.00
44140;BME280;29803;51.048;4.686;2024-03-07T08:37:50;102268.59;;;7.54;100.00
44140;BME280;29803;51.048;4.686;2024-03-07T08:40:25;102274.59;;;8.17;100.00
44140;BME280;29803;51.048;4.686;2024-03-07T08:42:55;102267.56;;;8.62;100.00
44140;BME280;29803;51.048;4.686;2024-03-07T08:45:27;102261.19;;;9.10;100.00
44140;BME280;29803;51.048;4.686;2024-03-07T08:47:57;102257.00;;;9.39;100.00
44140;BME280;29803;51.048;4.686;2024-03-07T08:50:28;102258.88;;;9.71;100.00
44140;BME280;29803;51.048;4.686;2024-03-07T08:52:58;102255.72;;;9.98;100.00
44140;BME280;29803;51.048;4.686;2024-03-07T08:55:29;102250.53;;;10.17;100.00
44140;BME280;29803;51.048;4.686;2024-03-07T08:58:00;102253.25;;;10.38;100.00
44140;BME280;29803;51.048;4.686;2024-03-07T09:00:31;102251.28;;;10.61;100.00
44140;BME280;29803;51.048;4.686;2024-03-07T09:03:02;102251.66;;;10.77;100.00
44140;BME280;29803;51.048;4.686;2024-03-07T09:05:34;102245.44;;;11.07;100.00
44140;BME280;29803;51.048;4.686;2024-03-07T09:08:04;102243.00;;;11.35;100.00
44140;BME280;29803;51.048;4.686;2024-03-07T09:10:35;102241.75;;;11.49;100.00
44140;BME280;29803;51.048;4.686;2024-03-07T09:13:06;102243.06;;;11.74;100.00
44140;BME280;29803;51.048;4.686;2024-03-07T09:15:37;102234.03;;;11.94;100.00
44140;BME280;29803;51.048;4.686;2024-03-07T09:18:07;102238.41;;;12.05;100.00
44140;BME280;29803;51.048;4.686;2024-03-07T09:20:38;102238.41;;;12.14;100.00
44140;BME280;29803;51.048;4.686;2024-03-07T09:23:08;102238.00;;;12.19;100.00
44140;BME280;29803;51.048;4.686;2024-03-07T09:25:39;102234.00;;;12.42;100.00
44140;BME280;29803;51.048;4.686;2024-03-07T09:28:10;102241.22;;;12.52;100.00
44140;BME280;29803;51.048;4.686;2024-03-07T09:30:40;102231.88;;;12.56;100.00
44140;BME280;29803;51.048;4.686;2024-03-07T09:33:11;102233.97;;;12.62;100.00
44140;BME280;29803;51.048;4.686;2024-03-07T09:35:41;102231.06;;;12.83;100.00
44140;BME280;29803;51.048;4.686;2024-03-07T09:38:12;102220.81;;;12.96;100.00
44140;BME280;29803;51.048;4.686;2024-03-07T09:40:43;102230.63;;;13.15;100.00
44140;BME280;29803;51.048;4.686;2024-03-07T09:43:15;102232.78;;;13.11;100.00
44140;BME280;29803;51.048;4.686;2024-03-07T09:45:47;102224.72;;;13.11;100.00
44140;BME280;29803;51.048;4.686;2024-03-07T09:48:19;102222.31;;;13.08;100.00
44140;BME280;29803;51.048;4.686;2024-03-07T09:50:52;102222.53;;;13.25;100.00
44140;BME280;29803;51.048;4.686;2024-03-07T09:53:25;102212.53;;;13.35;100.00
44140;BME280;29803;51.048;4.686;2024-03-07T09:55:56;102224.78;;;13.29;100.00
44140;BME280;29803;51.048;4.686;2024-03-07T09:58:28;102216.03;;;13.17;100.00
44140;BME280;29803;51.048;4.686;2024-03-07T10:01:02;102221.56;;;13.16;100.00
44140;BME280;29803;51.048;4.686;2024-03-07T10:03:34;102210.91;;;13.14;100.00
44140;BME280;29803;51.048;4.686;2024-03-07T10:06:05;102214.75;;;13.21;100.00
44140;BME280;29803;51.048;4.686;2024-03-07T10:08:36;102204.72;;;13.04;100.00
44140;BME280;29803;51.048;4.686;2024-03-07T10:11:07;102206.69;;;13.12;100.00
44140;BME280;29803;51.048;4.686;2024-03-07T10:13:39;102203.09;;;13.21;100.00
44140;BME280;29803;51.048;4.686;2024-03-07T10:16:11;102202.25;;;13.20;100.00
44140;BME280;29803;51.048;4.686;2024-03-07T10:18:43;102193.88;;;13.24;100.00
44140;BME280;29803;51.048;4.686;2024-03-07T10:21:19;102187.38;;;13.16;100.00
44140;BME280;29803;51.048;4.686;2024-03-07T10:23:50;102193.50;;;13.09;100.00
44140;BME280;29803;51.048;4.686;2024-03-07T10:26:23;102185.13;;;13.12;100.00
44140;BME280;29803;51.048;4.686;2024-03-07T10:28:54;102188.97;;;13.09;100.00
44140;BME280;29803;51.048;4.686;2024-03-07T10:31:31;102183.91;;;13.06;100.00
44140;BME280;29803;51.048;4.686;2024-03-07T10:34:03;102174.69;;;12.99;100.00
44140;BME280;29803;51.048;4.686;2024-03-07T10:36:34;102174.31;;;12.94;100.00
44140;BME280;29803;51.048;4.686;2024-03-07T10:39:05;102179.28;;;12.89;100.00
44140;BME280;29803;51.048;4.686;2024-03-07T10:41:46;102174.81;;;12.70;100.00
44140;BME280;29803;51.048;4.686;2024-03-07T10:44:19;102166.00;;;12.50;100.00
44140;BME280;29803;51.048;4.686;2024-03-07T10:46:54;102172.19;;;12.60;100.00
44140;BME280;29803;51.048;4.686;2024-03-07T10:49:25;102172.06;;;12.52;100.00
44140;BME280;29803;51.048;4.686;2024-03-07T10:52:10;102167.19;;;12.75;100.00
44140;BME280;29803;51.048;4.686;2024-03-07T10:54:48;102160.03;;;12.84;100.00
44140;BME280;29803;51.048;4.686;2024-03-07T10:57:50;102170.16;;;13.00;100.00
44140;BME280;29803;51.048;4.686;2024-03-07T11:00:26;102159.78;;;13.05;100.00
44140;BME280;29803;51.048;4.686;2024-03-07T11:03:06;102164.03;;;13.07;100.00
44140;BME280;29803;51.048;4.686;2024-03-07T11:05:38;102159.94;;;13.03;100.00
44140;BME280;29803;51.048;4.686;2024-03-07T11:08:10;102161.53;;;13.24;100.00
44140;BME280;29803;51.048;4.686;2024-03-07T11:10:42;102162.25;;;13.26;100.00
44140;BME280;29803;51.048;4.686;2024-03-07T11:13:14;102152.97;;;13.10;100.00
44140;BME280;29803;51.048;4.686;2024-03-07T11:15:48;102154.72;;;13.19;100.00
44140;BME280;29803;51.048;4.686;2024-03-07T11:18:19;102148.94;;;13.14;100.00
44140;BME280;29803;51.048;4.686;2024-03-07T11:20:50;102153.50;;;12.86;100.00
44140;BME280;29803;51.048;4.686;2024-03-07T11:23:28;102143.28;;;12.62;100.00
44140;BME280;29803;51.048;4.686;2024-03-07T11:26:06;102130.41;;;12.56;100.00
44140;BME280;29803;51.048;4.686;2024-03-07T11:28:40;102127.41;;;12.59;100.00
44140;BME280;29803;51.048;4.686;2024-03-07T11:34:12;102133.44;;;12.34;100.00
44140;BME280;29803;51.048;4.686;2024-03-07T11:36:44;102124.47;;;12.15;100.00
44140;BME280;29803;51.048;4.686;2024-03-07T11:39:41;102118.50;;;12.22;100.00
44140;BME280;29803;51.048;4.686;2024-03-07T11:42:19;102117.19;;;12.35;100.00
44140;BME280;29803;51.048;4.686;2024-03-07T11:44:52;102114.25;;;12.56;100.00
44140;BME280;29803;51.048;4.686;2024-03-07T11:47:34;102102.25;;;12.78;100.00
44140;BME280;29803;51.048;4.686;2024-03-07T11:50:06;102103.25;;;12.77;100.00
44140;BME280;29803;51.048;4.686;2024-03-07T11:52:41;102101.09;;;12.53;100.00
44140;BME280;29803;51.048;4.686;2024-03-07T11:55:14;102106.69;;;12.32;100.00
44140;BME280;29803;51.048;4.686;2024-03-07T11:57:46;102096.88;;;12.04;100.00
44140;BME280;29803;51.048;4.686;2024-03-07T12:00:18;102089.81;;;11.93;100.00
44140;BME280;29803;51.048;4.686;2024-03-07T12:02:49;102092.09;;;11.88;100.00
44140;BME280;29803;51.048;4.686;2024-03-07T12:05:20;102095.84;;;12.14;100.00
44140;BME280;29803;51.048;4.686;2024-03-07T12:07:50;102092.25;;;12.33;100.00
44140;BME280;29803;51.048;4.686;2024-03-07T12:10:21;102079.22;;;12.66;100.00
44140;BME280;29803;51.048;4.686;2024-03-07T12:12:55;102077.44;;;13.02;100.00
44140;BME280;29803;51.048;4.686;2024-03-07T12:15:27;102080.28;;;13.18;100.00
44140;BME280;29803;51.048;4.686;2024-03-07T12:17:58;102073.22;;;13.17;100.00
44140;BME280;29803;51.048;4.686;2024-03-07T12:20:32;102074.03;;;13.00;100.00
44140;BME280;29803;51.048;4.686;2024-03-07T12:23:05;102070.69;;;12.70;100.00
44140;BME280;29803;51.048;4.686;2024-03-07T12:25:38;102073.97;;;12.37;100.00
44140;BME280;29803;51.048;4.686;2024-03-07T12:28:12;102066.56;;;12.11;100.00
44140;BME280;29803;51.048;4.686;2024-03-07T12:30:50;102053.28;;;12.10;100.00
44140;BME280;29803;51.048;4.686;2024-03-07T12:33:21;102048.78;;;12.28;100.00
44140;BME280;29803;51.048;4.686;2024-03-07T12:35:55;102051.22;;;12.22;100.00
44140;BME280;29803;51.048;4.686;2024-03-07T12:38:30;102047.91;;;12.00;100.00
44140;BME280;29803;51.048;4.686;2024-03-07T12:41:07;102045.53;;;11.68;100.00
44140;BME280;29803;51.048;4.686;2024-03-07T12:43:44;102038.31;;;11.78;100.00
44140;BME280;29803;51.048;4.686;2024-03-07T12:46:17;102045.22;;;12.00;100.00
44140;BME280;29803;51.048;4.686;2024-03-07T12:48:47;102035.09;;;12.22;100.00
44140;BME280;29803;51.048;4.686;2024-03-07T12:51:19;102031.03;;;12.45;100.00
44140;BME280;29803;51.048;4.686;2024-03-07T12:53:52;102028.75;;;12.68;100.00
44140;BME280;29803;51.048;4.686;2024-03-07T12:56:23;102026.41;;;13.01;100.00
44140;BME280;29803;51.048;4.686;2024-03-07T12:58:53;102018.09;;;13.30;100.00
44140;BME280;29803;51.048;4.686;2024-03-07T13:01:24;102020.00;;;13.19;100.00
44140;BME280;29803;51.048;4.686;2024-03-07T13:03:55;102018.84;;;12.86;100.00
44140;BME280;29803;51.048;4.686;2024-03-07T13:06:25;102017.56;;;12.45;100.00
44140;BME280;29803;51.048;4.686;2024-03-07T13:08:59;102002.09;;;12.19;100.00
44140;BME280;29803;51.048;4.686;2024-03-07T13:11:30;102002.91;;;11.92;100.00
44140;BME280;29803;51.048;4.686;2024-03-07T13:14:02;102000.06;;;11.94;100.00
44140;BME280;29803;51.048;4.686;2024-03-07T13:16:33;101995.81;;;12.01;100.00